createdAt,value
2022-09-04T00:00:46.954Z, 35.85
2022-09-04T00:01:46.921Z, 35.90
2022-09-04T00:02:46.943Z, 36.10
2022-09-04T00:03:47.085Z, 36.01
2022-09-04T00:04:47.076Z, 35.98
2022-09-04T00:05:47.084Z, 35.91
2022-09-04T00:06:47.137Z, 35.78
2022-09-04T00:07:47.135Z, 35.93
2022-09-04T00:08:47.171Z, 36.06
2022-09-04T00:09:47.213Z, 35.92
2022-09-04T00:10:47.300Z, 35.94
2022-09-04T00:11:47.348Z, 35.94
2022-09-04T00:12:47.300Z, 36.03
2022-09-04T00:13:47.384Z, 35.90
2022-09-04T00:14:47.404Z, 35.85
2022-09-04T00:15:47.444Z, 36.00
2022-09-04T00:16:47.517Z, 35.92
2022-09-04T00:17:47.508Z, 35.97
2022-09-04T00:18:47.488Z, 35.99
2022-09-04T00:19:47.512Z, 36.00
2022-09-04T00:20:47.586Z, 35.91
2022-09-04T00:21:47.584Z, 35.93
2022-09-04T00:22:47.632Z, 35.98
2022-09-04T00:23:47.661Z, 35.90
2022-09-04T00:24:47.696Z, 35.91
2022-09-04T00:25:47.714Z, 35.88
2022-09-04T00:26:47.762Z, 36.06
2022-09-04T00:27:47.866Z, 36.07
2022-09-04T00:28:47.905Z, 35.77
2022-09-04T00:29:47.946Z, 35.95
2022-09-04T00:30:48.060Z, 35.85
2022-09-04T00:31:47.952Z, 35.78
2022-09-04T00:32:47.961Z, 35.87
2022-09-04T00:33:47.991Z, 35.98
2022-09-04T00:34:48.094Z, 35.77
2022-09-04T00:35:48.143Z, 35.77
2022-09-04T00:36:50.285Z, 35.86
2022-09-04T00:37:48.163Z, 35.86
2022-09-04T00:38:48.192Z, 35.88
2022-09-04T00:39:48.354Z, 35.96
2022-09-04T00:40:48.264Z, 35.93
2022-09-04T00:41:48.307Z, 35.94
2022-09-04T00:42:48.309Z, 35.75
2022-09-04T00:43:48.350Z, 35.66
2022-09-04T00:44:48.387Z, 35.78
2022-09-04T00:45:48.510Z, 35.88
2022-09-04T00:46:48.455Z, 35.81
2022-09-04T00:47:48.490Z, 35.97
2022-09-04T00:48:48.529Z, 35.97
2022-09-04T00:49:48.545Z, 35.95
2022-09-04T00:50:48.663Z, 36.00
2022-09-04T00:51:48.637Z, 35.90
2022-09-04T00:52:48.678Z, 35.96
2022-09-04T00:53:48.717Z, 35.95
2022-09-04T00:54:48.735Z, 35.93
2022-09-04T00:55:48.834Z, 35.89
2022-09-04T00:56:48.827Z, 35.97
2022-09-04T00:57:48.834Z, 35.81
2022-09-04T00:58:48.855Z, 35.96
2022-09-04T00:59:48.903Z, 35.98
2022-09-04T01:00:49.147Z, 35.84
2022-09-04T01:01:49.340Z, 36.17
2022-09-04T01:02:49.067Z, 36.05
2022-09-04T01:03:49.070Z, 35.80
2022-09-04T01:04:49.078Z, 35.86
2022-09-04T01:05:49.101Z, 35.95
2022-09-04T01:06:49.140Z, 35.75
2022-09-04T01:07:49.188Z, 35.92
2022-09-04T01:08:49.226Z, 35.75
2022-09-04T01:09:49.252Z, 35.87
2022-09-04T01:10:49.298Z, 35.81
2022-09-04T01:11:49.387Z, 35.96
2022-09-04T01:12:49.365Z, 35.96
2022-09-04T01:13:49.392Z, 35.88
2022-09-04T01:14:52.875Z, 35.73
2022-09-04T01:15:49.470Z, 35.67
2022-09-04T01:16:49.598Z, 35.75
2022-09-04T01:17:49.532Z, 35.72
2022-09-04T01:18:49.600Z, 35.89
2022-09-04T01:19:49.593Z, 35.82
2022-09-04T01:20:49.645Z, 35.76
2022-09-04T01:21:49.668Z, 35.81
2022-09-04T01:22:49.694Z, 35.93
2022-09-04T01:23:49.789Z, 35.82
2022-09-04T01:24:49.825Z, 35.77
2022-09-04T01:25:49.804Z, 36.13
2022-09-04T01:26:49.859Z, 35.81
2022-09-04T01:27:49.858Z, 35.82
2022-09-04T01:28:49.946Z, 35.90
2022-09-04T01:29:49.939Z, 35.86
2022-09-04T01:30:49.975Z, 35.98
2022-09-04T01:31:50.085Z, 35.87
2022-09-04T01:32:50.044Z, 35.65
2022-09-04T01:33:50.075Z, 35.84
2022-09-04T01:34:50.102Z, 35.66
2022-09-04T01:35:50.148Z, 35.66
2022-09-04T01:36:50.192Z, 35.84
2022-09-04T01:37:50.228Z, 35.89
2022-09-04T01:38:50.258Z, 35.74
2022-09-04T01:39:50.364Z, 35.81
2022-09-04T01:40:50.317Z, 35.87
2022-09-04T01:41:50.368Z, 35.93
2022-09-04T01:42:50.451Z, 35.97
2022-09-04T01:43:50.439Z, 35.82
2022-09-04T01:44:50.466Z, 35.87
2022-09-04T01:45:50.617Z, 35.83
2022-09-04T01:46:50.573Z, 35.86
2022-09-04T01:47:50.595Z, 36.03
2022-09-04T01:48:50.748Z, 35.74
2022-09-04T01:49:50.748Z, 35.64
2022-09-04T01:50:50.746Z, 35.85
2022-09-04T01:51:50.745Z, 35.81
2022-09-04T01:52:50.786Z, 35.81
2022-09-04T01:53:50.831Z, 35.90
2022-09-04T01:54:50.824Z, 35.79
2022-09-04T01:55:50.859Z, 35.76
2022-09-04T01:56:50.871Z, 35.79
2022-09-04T01:57:50.893Z, 35.78
2022-09-04T01:58:50.968Z, 35.81
2022-09-04T01:59:53.697Z, 35.86
2022-09-04T02:00:51.134Z, 35.77
2022-09-04T02:01:51.149Z, 35.89
2022-09-04T02:02:52.122Z, 35.86
2022-09-04T02:03:51.263Z, 35.93
2022-09-04T02:04:51.187Z, 35.77
2022-09-04T02:05:51.262Z, 35.80
2022-09-04T02:06:51.252Z, 35.80
2022-09-04T02:07:51.256Z, 35.62
2022-09-04T02:08:51.434Z, 35.70
2022-09-04T02:09:54.055Z, 35.66
2022-09-04T02:10:51.382Z, 35.64
2022-09-04T02:11:51.483Z, 35.72
2022-09-04T02:12:51.465Z, 35.85
2022-09-04T02:13:51.553Z, 35.79
2022-09-04T02:14:51.555Z, 35.77
2022-09-04T02:15:51.545Z, 35.67
2022-09-04T02:16:51.624Z, 35.80
2022-09-04T02:17:51.609Z, 36.00
2022-09-04T02:18:51.702Z, 35.75
2022-09-04T02:19:51.684Z, 35.72
2022-09-04T02:20:51.713Z, 35.81
2022-09-04T02:21:51.827Z, 35.73
2022-09-04T02:22:51.825Z, 35.93
2022-09-04T02:23:51.930Z, 35.76
2022-09-04T02:24:51.879Z, 35.72
2022-09-04T02:25:52.089Z, 35.70
2022-09-04T02:26:51.954Z, 35.71
2022-09-04T02:27:52.041Z, 35.70
2022-09-04T02:28:52.121Z, 35.76
2022-09-04T02:29:52.030Z, 35.78
2022-09-04T02:30:54.503Z, 35.74
2022-09-04T02:31:52.265Z, 35.89
2022-09-04T02:32:52.134Z, 35.69
2022-09-04T02:33:52.162Z, 35.82
2022-09-04T02:34:52.194Z, 35.97
2022-09-04T02:35:52.298Z, 35.74
2022-09-04T02:36:52.274Z, 35.69
2022-09-04T02:37:52.295Z, 35.68
2022-09-04T02:38:52.512Z, 35.73
2022-09-04T02:39:52.420Z, 35.82
2022-09-04T02:40:52.404Z, 35.76
2022-09-04T02:41:52.428Z, 35.58
2022-09-04T02:42:52.460Z, 35.70
2022-09-04T02:43:52.487Z, 35.83
2022-09-04T02:44:52.595Z, 35.76
2022-09-04T02:45:52.634Z, 35.47
2022-09-04T02:46:52.669Z, 35.77
2022-09-04T02:47:52.628Z, 35.57
2022-09-04T02:48:52.652Z, 35.49
2022-09-04T02:49:52.694Z, 35.55
2022-09-04T02:50:52.773Z, 35.60
2022-09-04T02:51:52.753Z, 35.51
2022-09-04T02:52:52.778Z, 35.62
2022-09-04T02:53:52.832Z, 35.67
2022-09-04T02:54:52.871Z, 35.47
2022-09-04T02:55:52.907Z, 35.46
2022-09-04T02:56:52.946Z, 35.63
2022-09-04T02:57:52.969Z, 35.57
2022-09-04T02:58:53.044Z, 35.54
2022-09-04T02:59:53.032Z, 35.58
2022-09-04T03:00:53.121Z, 35.61
2022-09-04T03:01:53.114Z, 35.85
2022-09-04T03:02:53.147Z, 35.62
2022-09-04T03:03:53.174Z, 35.58
2022-09-04T03:04:53.261Z, 35.87
2022-09-04T03:05:53.296Z, 35.62
2022-09-04T03:06:53.273Z, 35.68
2022-09-04T03:07:53.294Z, 35.57
2022-09-04T03:08:53.522Z, 35.75
2022-09-04T03:09:53.375Z, 35.79
2022-09-04T03:10:53.417Z, 35.74
2022-09-04T03:11:53.448Z, 35.72
2022-09-04T03:12:53.520Z, 35.77
2022-09-04T03:13:53.499Z, 35.85
2022-09-04T03:14:53.507Z, 35.91
2022-09-04T03:15:53.674Z, 35.70
2022-09-04T03:16:53.581Z, 35.72
2022-09-04T03:17:53.617Z, 35.62
2022-09-04T03:18:53.653Z, 35.56
2022-09-04T03:19:53.685Z, 35.69
2022-09-04T03:20:53.709Z, 35.69
2022-09-04T03:21:53.766Z, 35.78
2022-09-04T03:22:53.780Z, 35.80
2022-09-04T03:23:53.806Z, 35.67
2022-09-04T03:24:53.859Z, 35.79
2022-09-04T03:25:53.950Z, 35.87
2022-09-04T03:26:53.922Z, 35.72
2022-09-04T03:27:53.959Z, 35.72
2022-09-04T03:28:53.992Z, 35.71
2022-09-04T03:29:54.000Z, 35.76
2022-09-04T03:30:54.081Z, 35.83
2022-09-04T03:31:54.133Z, 35.64
2022-09-04T03:32:54.136Z, 35.64
2022-09-04T03:33:54.165Z, 35.75
2022-09-04T03:34:54.173Z, 35.58
2022-09-04T03:35:54.267Z, 35.72
2022-09-04T03:36:54.306Z, 35.89
2022-09-04T03:37:54.318Z, 35.65
2022-09-04T03:38:54.351Z, 35.73
2022-09-04T03:39:54.418Z, 35.75
2022-09-04T03:40:54.375Z, 35.76
2022-09-04T03:41:54.449Z, 35.69
2022-09-04T03:42:54.445Z, 35.79
2022-09-04T03:43:54.478Z, 35.89
2022-09-04T03:44:54.514Z, 35.78
2022-09-04T03:45:54.543Z, 36.12
2022-09-04T03:46:54.814Z, 35.86
2022-09-04T03:47:54.632Z, 35.93
2022-09-04T03:48:54.690Z, 35.99
2022-09-04T03:49:54.747Z, 35.82
2022-09-04T03:50:54.748Z, 35.90
2022-09-04T03:51:54.760Z, 35.77
2022-09-04T03:52:54.807Z, 35.96
2022-09-04T03:53:54.814Z, 35.93
2022-09-04T03:54:54.851Z, 35.78
2022-09-04T03:55:54.891Z, 35.77
2022-09-04T03:56:54.918Z, 35.93
2022-09-04T03:57:55.015Z, 35.89
2022-09-04T03:58:55.015Z, 35.75
2022-09-04T03:59:55.010Z, 35.89
2022-09-04T04:00:55.217Z, 35.83
2022-09-04T04:01:55.086Z, 35.95
2022-09-04T04:02:55.311Z, 35.73
2022-09-04T04:03:55.174Z, 35.87
2022-09-04T04:04:55.170Z, 35.93
2022-09-04T04:05:55.197Z, 35.83
2022-09-04T04:06:55.234Z, 36.02
2022-09-04T04:07:55.269Z, 35.88
2022-09-04T04:08:55.305Z, 36.11
2022-09-04T04:09:55.393Z, 35.83
2022-09-04T04:10:55.423Z, 35.67
2022-09-04T04:11:55.415Z, 35.66
2022-09-04T04:12:55.438Z, 35.85
2022-09-04T04:13:55.472Z, 35.95
2022-09-04T04:14:55.562Z, 35.75
2022-09-04T04:15:55.685Z, 35.74
2022-09-04T04:16:55.802Z, 35.91
2022-09-04T04:17:55.669Z, 36.11
2022-09-04T04:18:55.662Z, 35.86
2022-09-04T04:19:55.680Z, 35.96
2022-09-04T04:20:55.708Z, 35.98
2022-09-04T04:21:55.735Z, 35.98
2022-09-04T04:22:55.787Z, 36.00
2022-09-04T04:23:55.877Z, 35.84
2022-09-04T04:24:55.869Z, 36.07
2022-09-04T04:25:55.885Z, 36.03
2022-09-04T04:26:55.910Z, 35.90
2022-09-04T04:27:55.983Z, 35.91
2022-09-04T04:28:55.970Z, 35.85
2022-09-04T04:29:55.997Z, 35.76
2022-09-04T04:30:56.164Z, 35.91
2022-09-04T04:31:56.125Z, 35.76
2022-09-04T04:32:56.184Z, 36.00
2022-09-04T04:33:56.176Z, 35.92
2022-09-04T04:34:56.270Z, 35.97
2022-09-04T04:35:56.293Z, 35.99
2022-09-04T04:36:56.333Z, 35.92
2022-09-04T04:37:56.319Z, 35.95
2022-09-04T04:38:56.418Z, 36.02
2022-09-04T04:39:56.455Z, 36.05
2022-09-04T04:40:56.455Z, 36.01
2022-09-04T04:41:56.455Z, 35.98
2022-09-04T04:42:56.497Z, 35.93
2022-09-04T04:43:56.521Z, 35.90
2022-09-04T04:44:56.562Z, 35.94
2022-09-04T04:45:56.647Z, 35.88
2022-09-04T04:46:56.690Z, 36.04
2022-09-04T04:47:56.650Z, 35.99
2022-09-04T04:48:56.682Z, 35.96
2022-09-04T04:49:56.786Z, 36.01
2022-09-04T04:50:56.761Z, 36.03
2022-09-04T04:51:56.770Z, 36.04
2022-09-04T04:52:56.849Z, 36.12
2022-09-04T04:53:56.837Z, 35.91
2022-09-04T04:54:56.938Z, 36.01
2022-09-04T04:55:56.921Z, 36.02
2022-09-04T04:56:56.982Z, 36.08
2022-09-04T04:57:57.053Z, 36.03
2022-09-04T04:58:57.068Z, 36.04
2022-09-04T04:59:57.059Z, 35.96
2022-09-04T05:00:57.069Z, 36.03
2022-09-04T05:01:57.187Z, 35.97
2022-09-04T05:02:57.234Z, 35.97
2022-09-04T05:03:57.181Z, 36.03
2022-09-04T05:04:57.279Z, 36.14
2022-09-04T05:05:57.263Z, 35.95
2022-09-04T05:06:57.305Z, 35.95
2022-09-04T05:07:57.338Z, 35.91
2022-09-04T05:08:57.324Z, 35.71
2022-09-04T05:09:57.372Z, 35.73
2022-09-04T05:10:57.396Z, 35.89
2022-09-04T05:11:57.427Z, 35.72
2022-09-04T05:12:57.507Z, 35.92
2022-09-04T05:13:57.502Z, 35.94
2022-09-04T05:14:57.544Z, 35.82
2022-09-04T05:16:09.034Z, 35.87
2022-09-04T05:16:57.638Z, 36.02
2022-09-04T05:17:57.630Z, 35.99
2022-09-04T05:18:57.641Z, 36.01
2022-09-04T05:19:57.666Z, 35.88
2022-09-04T05:20:57.770Z, 35.93
2022-09-04T05:21:57.756Z, 35.79
2022-09-04T05:22:57.787Z, 35.96
2022-09-04T05:23:57.863Z, 36.02
2022-09-04T05:24:57.838Z, 35.91
2022-09-04T05:25:57.886Z, 35.78
2022-09-04T05:26:57.957Z, 35.64
2022-09-04T05:27:57.948Z, 35.78
2022-09-04T05:28:57.973Z, 35.79
2022-09-04T05:29:58.032Z, 35.73
2022-09-04T05:30:58.153Z, 35.93
2022-09-04T05:31:58.096Z, 35.97
2022-09-04T05:32:58.133Z, 35.91
2022-09-04T05:33:58.114Z, 35.99
2022-09-04T05:34:58.121Z, 35.81
2022-09-04T05:35:58.164Z, 35.83
2022-09-04T05:36:58.195Z, 35.89
2022-09-04T05:37:58.262Z, 35.96
2022-09-04T05:38:58.310Z, 35.82
2022-09-04T05:39:58.349Z, 35.84
2022-09-04T05:40:58.323Z, 35.90
2022-09-04T05:41:59.165Z, 36.07
2022-09-04T05:42:58.393Z, 35.97
2022-09-04T05:43:58.420Z, 35.88
2022-09-04T05:44:58.483Z, 35.72
2022-09-04T05:45:58.575Z, 35.99
2022-09-04T05:46:58.539Z, 36.00
2022-09-04T05:47:58.756Z, 35.99
2022-09-04T05:48:58.620Z, 36.05
2022-09-04T05:49:58.748Z, 36.10
2022-09-04T05:50:58.749Z, 36.06
2022-09-04T05:51:58.771Z, 36.23
2022-09-04T05:52:58.753Z, 36.13
2022-09-04T05:54:01.022Z, 35.93
2022-09-04T05:54:58.861Z, 35.89
2022-09-04T05:55:58.845Z, 35.99
2022-09-04T05:56:58.870Z, 36.09
2022-09-04T05:57:58.894Z, 36.21
2022-09-04T05:58:58.994Z, 36.00
2022-09-04T05:59:58.967Z, 35.97
2022-09-04T06:00:58.977Z, 35.97
2022-09-04T06:01:59.081Z, 36.08
2022-09-04T06:02:59.138Z, 36.13
2022-09-04T06:03:59.166Z, 36.04
2022-09-04T06:04:59.175Z, 35.95
2022-09-04T06:05:59.161Z, 36.19
2022-09-04T06:06:59.170Z, 36.19
2022-09-04T06:07:59.220Z, 36.23
2022-09-04T06:08:59.255Z, 36.09
2022-09-04T06:09:59.312Z, 36.14
2022-09-04T06:10:59.394Z, 36.16
2022-09-04T06:11:59.375Z, 35.99
2022-09-04T06:12:59.408Z, 36.05
2022-09-04T06:13:59.431Z, 36.09
2022-09-04T06:14:59.459Z, 36.04
2022-09-04T06:15:59.608Z, 36.11
2022-09-04T06:16:59.531Z, 36.20
2022-09-04T06:17:59.595Z, 36.27
2022-09-04T06:18:59.667Z, 36.18
2022-09-04T06:19:59.616Z, 36.14
2022-09-04T06:20:59.642Z, 36.16
2022-09-04T06:21:59.677Z, 36.23
2022-09-04T06:23:02.948Z, 36.22
2022-09-04T06:23:59.798Z, 36.21
2022-09-04T06:24:59.789Z, 36.05
2022-09-04T06:25:59.818Z, 36.19
2022-09-04T06:26:59.852Z, 36.34
2022-09-04T06:27:59.891Z, 36.11
2022-09-04T06:29:03.577Z, 36.10
2022-09-04T06:29:59.974Z, 36.15
2022-09-04T06:31:00.040Z, 36.20
2022-09-04T06:32:00.030Z, 36.22
2022-09-04T06:33:00.075Z, 36.23
2022-09-04T06:34:00.110Z, 36.28
2022-09-04T06:35:00.204Z, 36.29
2022-09-04T06:36:00.208Z, 36.26
2022-09-04T06:37:00.195Z, 36.22
2022-09-04T06:38:00.214Z, 36.30
2022-09-04T06:39:00.241Z, 36.17
2022-09-04T06:40:00.421Z, 36.25
2022-09-04T06:41:00.387Z, 36.26
2022-09-04T06:42:00.433Z, 36.21
2022-09-04T06:43:00.421Z, 36.25
2022-09-04T06:44:00.451Z, 36.17
2022-09-04T06:45:00.466Z, 36.29
2022-09-04T06:46:02.534Z, 36.21
2022-09-04T06:47:00.588Z, 36.32
2022-09-04T06:48:00.628Z, 36.15
2022-09-04T06:49:00.621Z, 36.25
2022-09-04T06:50:00.707Z, 36.37
2022-09-04T06:51:00.700Z, 36.41
2022-09-04T06:52:00.805Z, 36.38
2022-09-04T06:53:04.191Z, 36.18
2022-09-04T06:54:00.785Z, 36.34
2022-09-04T06:55:00.865Z, 36.43
2022-09-04T06:56:00.842Z, 36.23
2022-09-04T06:57:00.933Z, 36.39
2022-09-04T06:58:00.905Z, 36.45
2022-09-04T06:59:01.642Z, 36.16
2022-09-04T07:00:00.961Z, 36.40
2022-09-04T07:01:01.039Z, 36.34
2022-09-04T07:02:01.279Z, 36.19
2022-09-04T07:03:01.054Z, 36.28
2022-09-04T07:04:01.156Z, 36.38
2022-09-04T07:05:01.143Z, 36.40
2022-09-04T07:06:01.155Z, 36.42
2022-09-04T07:07:01.220Z, 36.36
2022-09-04T07:08:01.217Z, 36.34
2022-09-04T07:09:01.243Z, 36.44
2022-09-04T07:10:01.813Z, 36.37
2022-09-04T07:11:01.362Z, 36.50
2022-09-04T07:12:01.389Z, 36.53
2022-09-04T07:13:01.387Z, 36.46
2022-09-04T07:14:01.405Z, 36.43
2022-09-04T07:15:01.440Z, 36.40
2022-09-04T07:16:01.581Z, 36.39
2022-09-04T07:17:01.516Z, 36.37
2022-09-04T07:18:01.630Z, 36.46
2022-09-04T07:19:01.584Z, 36.38
2022-09-04T07:20:01.614Z, 36.42
2022-09-04T07:21:01.709Z, 36.55
2022-09-04T07:22:01.695Z, 36.50
2022-09-04T07:23:01.758Z, 36.42
2022-09-04T07:24:01.750Z, 36.58
2022-09-04T07:25:01.782Z, 36.40
2022-09-04T07:26:01.804Z, 36.46
2022-09-04T07:27:01.863Z, 36.53
2022-09-04T07:28:01.887Z, 36.64
2022-09-04T07:29:01.911Z, 36.39
2022-09-04T07:30:01.929Z, 36.43
2022-09-04T07:31:02.082Z, 36.55
2022-09-04T07:32:02.022Z, 36.53
2022-09-04T07:33:02.055Z, 36.34
2022-09-04T07:34:02.082Z, 36.65
2022-09-04T07:35:02.149Z, 36.42
2022-09-04T07:36:02.168Z, 36.40
2022-09-04T07:37:02.202Z, 36.50
2022-09-04T07:38:02.221Z, 36.63
2022-09-04T07:39:02.258Z, 36.42
2022-09-04T07:40:02.418Z, 36.57
2022-09-04T07:41:02.338Z, 36.51
2022-09-04T07:42:02.364Z, 36.54
2022-09-04T07:43:02.411Z, 36.54
2022-09-04T07:44:02.454Z, 36.75
2022-09-04T07:45:02.493Z, 36.55
2022-09-04T07:46:02.689Z, 36.51
2022-09-04T07:47:02.547Z, 36.42
2022-09-04T07:48:02.593Z, 36.46
2022-09-04T07:49:02.622Z, 36.67
2022-09-04T07:50:02.648Z, 36.62
2022-09-04T07:51:02.911Z, 36.62
2022-09-04T07:52:02.704Z, 36.77
2022-09-04T07:53:04.831Z, 36.66
2022-09-04T07:54:02.817Z, 36.71
2022-09-04T07:55:02.822Z, 36.78
2022-09-04T07:56:02.869Z, 36.53
2022-09-04T07:57:02.922Z, 36.49
2022-09-04T07:58:02.933Z, 36.50
2022-09-04T07:59:03.015Z, 36.45
2022-09-04T08:00:02.994Z, 36.63
2022-09-04T08:01:03.081Z, 36.68
2022-09-04T08:02:03.207Z, 36.48
2022-09-04T08:03:03.114Z, 36.77
2022-09-04T08:04:03.200Z, 36.63
2022-09-04T08:05:03.223Z, 36.56
2022-09-04T08:06:03.200Z, 36.50
2022-09-04T08:07:03.210Z, 36.61
2022-09-04T08:08:03.237Z, 36.57
2022-09-04T08:09:03.339Z, 36.50
2022-09-04T08:10:03.364Z, 36.68
2022-09-04T08:11:03.337Z, 36.80
2022-09-04T08:12:03.436Z, 36.64
2022-09-04T08:13:03.416Z, 36.50
2022-09-04T08:14:03.510Z, 36.71
2022-09-04T08:15:03.524Z, 36.68
2022-09-04T08:16:03.613Z, 36.67
2022-09-04T08:17:03.565Z, 36.67
2022-09-04T08:18:03.632Z, 36.59
2022-09-04T08:19:03.633Z, 36.68
2022-09-04T08:20:03.729Z, 36.69
2022-09-04T08:21:03.703Z, 36.62
2022-09-04T08:22:03.759Z, 36.61
2022-09-04T08:23:03.751Z, 36.83
2022-09-04T08:24:03.794Z, 36.66
2022-09-04T08:25:03.828Z, 36.62
2022-09-04T08:26:03.908Z, 36.74
2022-09-04T08:27:03.907Z, 36.60
2022-09-04T08:28:03.939Z, 36.75
2022-09-04T08:29:03.993Z, 36.62
2022-09-04T08:30:03.994Z, 36.81
2022-09-04T08:31:04.132Z, 36.66
2022-09-04T08:32:04.072Z, 36.70
2022-09-04T08:33:04.167Z, 36.84
2022-09-04T08:34:04.142Z, 36.73
2022-09-04T08:35:04.171Z, 36.62
2022-09-04T08:36:04.214Z, 36.66
2022-09-04T08:37:04.302Z, 36.53
2022-09-04T08:38:04.276Z, 36.95
2022-09-04T08:39:07.097Z, 36.71
2022-09-04T08:40:04.442Z, 36.68
2022-09-04T08:41:04.465Z, 36.74
2022-09-04T08:42:04.440Z, 36.69
2022-09-04T08:43:04.504Z, 36.82
2022-09-04T08:44:04.502Z, 36.76
2022-09-04T08:45:04.519Z, 36.75
2022-09-04T08:46:04.660Z, 36.98
2022-09-04T08:47:04.607Z, 36.68
2022-09-04T08:48:04.634Z, 36.73
2022-09-04T08:49:04.726Z, 36.67
2022-09-04T08:50:04.706Z, 36.56
2022-09-04T08:51:04.714Z, 36.62
2022-09-04T08:52:04.797Z, 36.64
2022-09-04T08:53:04.776Z, 36.98
2022-09-04T08:54:04.814Z, 36.78
2022-09-04T08:55:04.863Z, 36.82
2022-09-04T08:56:04.936Z, 36.91
2022-09-04T08:57:04.931Z, 36.81
2022-09-04T08:58:04.959Z, 36.76
2022-09-04T08:59:04.963Z, 36.88
2022-09-04T09:00:05.002Z, 36.84
2022-09-04T09:01:05.139Z, 36.84
2022-09-04T09:02:05.228Z, 36.65
2022-09-04T09:03:05.152Z, 36.78
2022-09-04T09:04:05.179Z, 36.84
2022-09-04T09:05:05.192Z, 36.77
2022-09-04T09:06:05.212Z, 36.69
2022-09-04T09:07:05.251Z, 36.78
2022-09-04T09:08:05.286Z, 36.84
2022-09-04T09:09:05.321Z, 36.86
2022-09-04T09:10:05.361Z, 37.00
2022-09-04T09:11:05.390Z, 37.01
2022-09-04T09:12:05.426Z, 36.78
2022-09-04T09:13:05.519Z, 36.81
2022-09-04T09:14:05.494Z, 36.78
2022-09-04T09:15:05.584Z, 36.73
2022-09-04T09:16:05.561Z, 36.77
2022-09-04T09:17:05.659Z, 37.23
2022-09-04T09:18:05.695Z, 37.02
2022-09-04T09:19:05.731Z, 36.91
2022-09-04T09:20:05.763Z, 36.89
2022-09-04T09:21:05.780Z, 36.81
2022-09-04T09:22:05.800Z, 36.99
2022-09-04T09:23:05.793Z, 36.97
2022-09-04T09:24:05.905Z, 36.92
2022-09-04T09:25:05.917Z, 36.78
2022-09-04T09:26:05.902Z, 36.74
2022-09-04T09:27:05.935Z, 36.81
2022-09-04T09:28:05.974Z, 36.91
2022-09-04T09:29:06.012Z, 37.18
2022-09-04T09:30:06.033Z, 36.99
2022-09-04T09:31:06.126Z, 36.98
2022-09-04T09:32:06.108Z, 36.88
2022-09-04T09:33:06.200Z, 36.82
2022-09-04T09:34:06.186Z, 37.07
2022-09-04T09:35:06.261Z, 36.74
2022-09-04T09:36:06.238Z, 37.05
2022-09-04T09:37:06.368Z, 37.22
2022-09-04T09:38:06.365Z, 37.07
2022-09-04T09:39:06.330Z, 37.02
2022-09-04T09:40:06.420Z, 36.92
2022-09-04T09:41:06.455Z, 37.13
2022-09-04T09:42:06.425Z, 37.09
2022-09-04T09:43:06.488Z, 36.93
2022-09-04T09:44:06.474Z, 36.97
2022-09-04T09:45:06.581Z, 36.99
2022-09-04T09:46:06.654Z, 37.20
2022-09-04T09:47:06.604Z, 37.00
2022-09-04T09:48:09.825Z, 37.56
2022-09-04T09:49:13.828Z, 37.63
2022-09-04T09:50:06.693Z, 37.26
2022-09-04T09:51:06.774Z, 37.13
2022-09-04T09:52:06.754Z, 37.11
2022-09-04T09:53:06.855Z, 36.80
2022-09-04T09:54:06.826Z, 36.77
2022-09-04T09:55:06.915Z, 36.57
2022-09-04T09:56:06.911Z, 36.68
2022-09-04T09:57:06.970Z, 36.70
2022-09-04T09:58:06.946Z, 36.57
2022-09-04T09:59:06.969Z, 36.97
2022-09-04T10:00:07.059Z, 36.82
2022-09-04T10:01:08.631Z, 36.77
2022-09-04T10:02:07.165Z, 36.95
2022-09-04T10:03:07.105Z, 37.06
2022-09-04T10:04:07.144Z, 36.89
2022-09-04T10:05:07.180Z, 37.05
2022-09-04T10:06:07.197Z, 37.01
2022-09-04T10:07:07.220Z, 37.13
2022-09-04T10:08:07.268Z, 36.67
2022-09-04T10:09:09.369Z, 36.66
2022-09-04T10:10:07.377Z, 36.59
2022-09-04T10:11:07.369Z, 36.65
2022-09-04T10:12:07.395Z, 36.78
2022-09-04T10:13:07.486Z, 36.78
2022-09-04T10:14:07.460Z, 36.65
2022-09-04T10:15:07.507Z, 36.82
2022-09-04T10:16:07.557Z, 37.15
2022-09-04T10:17:07.570Z, 36.81
2022-09-04T10:18:07.599Z, 37.32
2022-09-04T10:19:07.628Z, 37.26
2022-09-04T10:20:07.653Z, 37.03
2022-09-04T10:21:07.692Z, 37.26
2022-09-04T10:22:07.808Z, 36.95
2022-09-04T10:23:07.779Z, 36.87
2022-09-04T10:24:07.805Z, 37.24
2022-09-04T10:25:07.838Z, 37.05
2022-09-04T10:26:07.868Z, 36.81
2022-09-04T10:27:07.960Z, 36.71
2022-09-04T10:28:07.985Z, 36.83
2022-09-04T10:29:07.998Z, 37.36
2022-09-04T10:30:07.985Z, 37.29
2022-09-04T10:31:08.125Z, 37.03
2022-09-04T10:32:08.137Z, 37.18
2022-09-04T10:33:11.683Z, 37.14
2022-09-04T10:34:08.127Z, 37.11
2022-09-04T10:35:08.162Z, 36.89
2022-09-04T10:36:08.190Z, 37.30
2022-09-04T10:37:08.234Z, 37.63
2022-09-04T10:38:08.287Z, 37.22
2022-09-04T10:39:08.325Z, 37.13
2022-09-04T10:40:08.484Z, 37.34
2022-09-04T10:41:08.421Z, 37.42
2022-09-04T10:42:08.433Z, 36.87
2022-09-04T10:43:08.456Z, 37.41
2022-09-04T10:44:08.470Z, 37.45
2022-09-04T10:45:08.504Z, 37.00
2022-09-04T10:46:08.654Z, 36.96
2022-09-04T10:47:08.656Z, 37.53
2022-09-04T10:48:08.687Z, 37.22
2022-09-04T10:49:08.697Z, 37.13
2022-09-04T10:50:08.690Z, 37.18
2022-09-04T10:51:08.713Z, 36.94
2022-09-04T10:52:08.740Z, 36.94
2022-09-04T10:53:08.791Z, 37.12
2022-09-04T10:54:08.829Z, 37.52
2022-09-04T10:55:08.941Z, 37.22
2022-09-04T10:56:08.980Z, 37.27
2022-09-04T10:57:08.954Z, 37.14
2022-09-04T10:58:08.975Z, 37.33
2022-09-04T10:59:09.040Z, 37.64
2022-09-04T11:00:09.113Z, 37.22
2022-09-04T11:01:09.196Z, 37.60
2022-09-04T11:02:09.187Z, 37.36
2022-09-04T11:03:09.141Z, 37.58
2022-09-04T11:04:09.247Z, 37.21
2022-09-04T11:05:09.229Z, 37.49
2022-09-04T11:06:09.236Z, 37.18
2022-09-04T11:07:09.249Z, 37.50
2022-09-04T11:08:09.391Z, 37.20
2022-09-04T11:09:09.397Z, 37.37
2022-09-04T11:10:09.372Z, 37.53
2022-09-04T11:11:09.464Z, 37.23
2022-09-04T11:12:09.454Z, 37.59
2022-09-04T11:13:09.463Z, 37.31
2022-09-04T11:14:09.533Z, 37.05
2022-09-04T11:15:09.533Z, 37.39
2022-09-04T11:16:09.672Z, 37.13
2022-09-04T11:17:09.615Z, 37.08
2022-09-04T11:18:09.676Z, 37.18
2022-09-04T11:19:09.806Z, 37.42
2022-09-04T11:20:09.804Z, 37.45
2022-09-04T11:21:09.807Z, 37.18
2022-09-04T11:22:09.805Z, 37.78
2022-09-04T11:23:09.812Z, 37.27
2022-09-04T11:24:09.809Z, 37.09
2022-09-04T11:25:09.828Z, 37.46
2022-09-04T11:26:09.861Z, 37.64
2022-09-04T11:27:09.941Z, 37.44
2022-09-04T11:28:09.927Z, 37.12
2022-09-04T11:29:09.934Z, 37.14
2022-09-04T11:30:10.005Z, 37.11
2022-09-04T11:31:10.213Z, 37.41
2022-09-04T11:32:10.056Z, 37.08
2022-09-04T11:33:10.091Z, 37.40
2022-09-04T11:34:10.206Z, 37.03
2022-09-04T11:35:10.193Z, 37.30
2022-09-04T11:36:10.214Z, 37.68
2022-09-04T11:37:14.490Z, 37.45
2022-09-04T11:38:10.323Z, 37.36
2022-09-04T11:39:10.358Z, 37.31
2022-09-04T11:40:10.358Z, 37.24
2022-09-04T11:41:10.387Z, 37.24
2022-09-04T11:42:10.414Z, 37.36
2022-09-04T11:43:10.546Z, 37.60
2022-09-04T11:44:10.514Z, 37.61
2022-09-04T11:45:10.530Z, 37.13
2022-09-04T11:46:10.709Z, 37.35
2022-09-04T11:47:10.590Z, 37.41
2022-09-04T11:48:10.680Z, 37.66
2022-09-04T11:49:10.732Z, 37.61
2022-09-04T11:50:10.758Z, 37.39
2022-09-04T11:51:10.732Z, 37.38
2022-09-04T11:52:10.751Z, 37.75
2022-09-04T11:53:10.793Z, 37.51
2022-09-04T11:54:10.843Z, 37.14
2022-09-04T11:55:10.926Z, 37.54
2022-09-04T11:56:10.924Z, 37.05
2022-09-04T11:57:10.965Z, 37.26
2022-09-04T11:58:11.048Z, 37.19
2022-09-04T11:59:11.070Z, 37.12
2022-09-04T12:00:11.093Z, 37.11
2022-09-04T12:01:11.079Z, 37.66
2022-09-04T12:02:11.194Z, 37.35
2022-09-04T12:03:11.203Z, 37.62
2022-09-04T12:04:11.287Z, 37.27
2022-09-04T12:05:11.221Z, 37.72
2022-09-04T12:06:11.273Z, 37.33
2022-09-04T12:07:11.271Z, 37.65
2022-09-04T12:08:11.350Z, 37.24
2022-09-04T12:09:11.352Z, 36.98
2022-09-04T12:10:11.472Z, 37.15
2022-09-04T12:11:11.408Z, 37.44
2022-09-04T12:12:11.439Z, 37.40
2022-09-04T12:13:15.080Z, 37.57
2022-09-04T12:14:11.498Z, 37.56
2022-09-04T12:15:11.538Z, 37.41
2022-09-04T12:16:11.645Z, 37.90
2022-09-04T12:17:11.595Z, 37.48
2022-09-04T12:18:11.690Z, 37.36
2022-09-04T12:19:11.750Z, 37.38
2022-09-04T12:20:11.734Z, 37.70
2022-09-04T12:21:11.738Z, 37.70
2022-09-04T12:22:11.775Z, 37.42
2022-09-04T12:23:11.864Z, 37.56
2022-09-04T12:24:11.888Z, 37.19
2022-09-04T12:25:11.875Z, 37.50
2022-09-04T12:26:11.913Z, 37.46
2022-09-04T12:27:11.939Z, 37.53
2022-09-04T12:28:11.968Z, 37.37
2022-09-04T12:29:11.994Z, 37.69